createdAt,value
2023-01-13T00:00:22.417Z,99889.94
2023-01-13T00:02:52.487Z,99885.25
2023-01-13T00:05:26.821Z,99884.91
2023-01-13T00:07:56.877Z,99881.34
2023-01-13T00:10:29.737Z,99890.88
2023-01-13T00:12:59.929Z,99886.16
2023-01-13T00:15:31.473Z,99884.06
2023-01-13T00:18:01.696Z,99884.56
2023-01-13T00:20:31.793Z,99887.47
2023-01-13T00:23:01.991Z,99892.19
2023-01-13T00:25:30.289Z,99885.38
2023-01-13T00:27:58.728Z,99872.69
2023-01-13T00:30:27.173Z,99886.19
2023-01-13T00:32:55.623Z,99881.47
2023-01-13T00:35:24.017Z,99882.78
2023-01-13T00:37:52.453Z,99885.84
2023-01-13T00:40:20.849Z,99871.50
2023-01-13T00:43:10.325Z,99879.47
2023-01-13T00:45:40.357Z,99877.03
2023-01-13T00:48:10.537Z,99879.53
2023-01-13T00:50:41.104Z,99872.00
2023-01-13T00:53:11.295Z,99872.19
2023-01-13T00:55:41.314Z,99874.59
2023-01-13T00:58:11.385Z,99875.41
2023-01-13T01:00:42.262Z,99872.00
2023-01-13T01:03:12.396Z,99879.94
2023-01-13T01:05:42.454Z,99875.34
2023-01-13T01:08:13.043Z,99883.66
2023-01-13T01:10:43.161Z,99887.59
2023-01-13T01:13:17.491Z,99875.06
2023-01-13T01:15:48.323Z,99887.06
2023-01-13T01:18:24.155Z,99879.81
2023-01-13T01:20:54.222Z,99881.63
2023-01-13T01:23:26.532Z,99882.97
2023-01-13T01:26:11.771Z,99880.19
2023-01-13T01:28:42.844Z,99887.06
2023-01-13T01:31:32.169Z,99886.75
2023-01-13T01:34:02.871Z,99877.06
2023-01-13T01:36:34.969Z,99884.94
2023-01-13T01:39:05.530Z,99866.88
2023-01-13T01:41:39.685Z,99872.28
2023-01-13T01:44:41.930Z,99868.53
2023-01-13T01:47:20.014Z,99860.84
2023-01-13T01:49:50.045Z,99864.28
2023-01-13T01:52:33.880Z,99858.84
2023-01-13T01:55:24.327Z,99864.56
2023-01-13T01:58:21.407Z,99855.78
2023-01-13T02:00:52.635Z,99855.03
2023-01-13T02:03:24.262Z,99843.34
2023-01-13T02:05:54.479Z,99850.44
2023-01-13T02:08:25.512Z,99849.41
2023-01-13T02:10:55.609Z,99859.56
2023-01-13T02:13:25.973Z,99852.41
2023-01-13T02:16:22.203Z,99849.78
2023-01-13T02:19:32.620Z,99847.69
2023-01-13T02:22:36.963Z,99838.81
2023-01-13T02:25:32.799Z,99833.81
2023-01-13T02:28:25.359Z,99834.53
2023-01-13T02:31:34.594Z,99831.66
2023-01-13T02:34:45.630Z,99827.00
2023-01-13T02:37:32.859Z,99843.91
2023-01-13T02:40:34.666Z,99826.56
2023-01-13T02:43:42.139Z,99840.03
2023-01-13T02:46:49.634Z,99834.91
2023-01-13T02:49:47.633Z,99835.81
2023-01-13T02:53:07.604Z,99826.84
2023-01-13T02:55:54.316Z,99823.13
2023-01-13T02:58:32.397Z,99824.59
2023-01-13T03:01:02.659Z,99813.88
2023-01-13T03:03:32.551Z,99826.34
2023-01-13T03:06:51.642Z,99816.50
2023-01-13T03:09:44.652Z,99822.53
2023-01-13T03:13:15.618Z,99826.88
2023-01-13T03:16:24.029Z,99822.34
2023-01-13T03:19:24.955Z,99826.25
2023-01-13T03:22:37.452Z,99816.16
2023-01-13T03:25:36.059Z,99803.81
2023-01-13T03:28:28.209Z,99816.31
2023-01-13T03:31:17.570Z,99814.09
2023-01-13T03:34:09.297Z,99810.91
2023-01-13T03:36:46.247Z,99809.97
2023-01-13T03:39:29.402Z,99815.97
2023-01-13T03:42:19.713Z,99812.31
2023-01-13T03:45:05.994Z,99813.06
2023-01-13T03:47:57.521Z,99811.53
2023-01-13T03:50:44.324Z,99811.81
2023-01-13T03:53:39.737Z,99813.91
2023-01-13T03:56:40.084Z,99821.88
2023-01-13T03:59:24.074Z,99812.00
2023-01-13T04:02:40.737Z,99811.00
2023-01-13T04:05:15.544Z,99802.31
2023-01-13T04:07:55.730Z,99809.59
2023-01-13T04:11:03.889Z,99800.63
2023-01-13T04:13:43.341Z,99800.88
2023-01-13T04:16:14.965Z,99801.09
2023-01-13T04:18:45.080Z,99807.53
2023-01-13T04:21:15.144Z,99813.06
2023-01-13T04:23:45.241Z,99802.84
2023-01-13T04:26:15.288Z,99804.34
2023-01-13T04:28:46.209Z,99806.56
2023-01-13T04:31:19.556Z,99813.09
2023-01-13T04:33:52.595Z,99810.72
2023-01-13T04:36:27.636Z,99817.06
2023-01-13T04:38:57.675Z,99811.88
2023-01-13T04:41:26.224Z,99811.25
2023-01-13T04:43:54.476Z,99813.88
2023-01-13T04:46:23.023Z,99812.25
2023-01-13T04:48:51.428Z,99812.53
2023-01-13T04:51:19.970Z,99822.31
2023-01-13T04:53:48.285Z,99819.53
2023-01-13T04:56:16.586Z,99829.13
2023-01-13T04:58:45.083Z,99835.00
2023-01-13T05:01:13.518Z,99832.63
2023-01-13T05:03:41.938Z,99825.06
2023-01-13T05:06:10.291Z,99826.44
2023-01-13T05:08:38.727Z,99830.28
2023-01-13T05:11:26.196Z,99825.28
2023-01-13T05:14:14.515Z,99834.13
2023-01-13T05:17:00.245Z,99828.56
2023-01-13T05:19:39.295Z,99825.22
2023-01-13T05:22:27.839Z,99835.47
2023-01-13T05:25:16.193Z,99825.56
2023-01-13T05:27:46.152Z,99830.41
2023-01-13T05:30:18.016Z,99829.97
2023-01-13T05:32:48.210Z,99824.75
2023-01-13T05:35:20.537Z,99821.72
2023-01-13T05:37:48.331Z,99835.22
2023-01-13T05:40:37.996Z,99834.75
2023-01-13T05:43:19.959Z,99835.75
2023-01-13T05:46:04.072Z,99830.50
2023-01-13T05:48:42.727Z,99828.88
2023-01-13T05:51:13.213Z,99839.81
2023-01-13T05:53:42.488Z,99840.56
2023-01-13T05:56:11.652Z,99841.88
2023-01-13T05:58:40.802Z,99845.78
2023-01-13T06:01:11.401Z,99842.47
2023-01-13T06:03:41.277Z,99837.28
2023-01-13T06:06:11.055Z,99844.44
2023-01-13T06:08:40.798Z,99826.53
2023-01-13T06:11:10.635Z,99849.50
2023-01-13T06:13:42.522Z,99832.22
2023-01-13T06:16:10.850Z,99838.44
2023-01-13T06:18:40.380Z,99832.75
2023-01-13T06:21:10.083Z,99837.16
2023-01-13T06:23:40.292Z,99862.66
2023-01-13T06:26:25.159Z,99868.25
2023-01-13T06:28:54.956Z,99861.75
2023-01-13T06:31:28.733Z,99861.38
2023-01-13T06:34:14.667Z,99849.69
2023-01-13T06:36:53.850Z,99853.44
2023-01-13T06:39:31.172Z,99862.00
2023-01-13T06:42:21.988Z,99863.78
2023-01-13T06:44:52.069Z,99864.16
2023-01-13T06:47:22.529Z,99862.94
2023-01-13T06:49:53.403Z,99827.03
2023-01-13T06:52:23.595Z,99844.38
2023-01-13T06:54:53.736Z,99845.66
2023-01-13T06:57:24.955Z,99848.06
2023-01-13T06:59:52.311Z,99840.50
2023-01-13T07:02:20.740Z,99865.09
2023-01-13T07:04:50.809Z,99853.88
2023-01-13T07:07:20.817Z,99837.00
2023-01-13T07:09:50.826Z,99841.28
2023-01-13T07:12:24.141Z,99858.31
2023-01-13T07:15:12.713Z,99859.88
2023-01-13T07:17:42.708Z,99858.94
2023-01-13T07:20:13.121Z,99848.00
2023-01-13T07:22:43.314Z,99842.91
2023-01-13T07:25:13.389Z,99857.69
2023-01-13T07:27:43.386Z,99852.31
2023-01-13T07:30:14.017Z,99838.31
2023-01-13T07:32:44.021Z,99828.47
2023-01-13T07:35:14.074Z,99823.13
2023-01-13T07:37:44.068Z,99844.75
2023-01-13T07:40:13.076Z,99860.91
2023-01-13T07:42:59.165Z,99855.25
2023-01-13T07:45:29.188Z,99862.25
2023-01-13T07:47:58.899Z,99873.31
2023-01-13T07:50:27.487Z,99871.09
2023-01-13T07:52:59.167Z,99871.31
2023-01-13T07:55:27.232Z,99862.75
2023-01-13T07:57:55.840Z,99861.94
2023-01-13T08:00:24.610Z,99865.91
2023-01-13T08:02:52.522Z,99871.16
2023-01-13T08:05:20.852Z,99890.63
2023-01-13T08:07:49.323Z,99911.75
2023-01-13T08:10:17.822Z,99914.19
2023-01-13T08:13:04.772Z,99910.59
2023-01-13T08:15:34.854Z,99907.66
2023-01-13T08:18:04.844Z,99913.53
2023-01-13T08:20:34.790Z,99911.06
2023-01-13T08:23:07.242Z,99916.44
2023-01-13T08:25:37.783Z,99925.69
2023-01-13T08:28:08.083Z,99938.72
2023-01-13T08:30:37.380Z,99929.13
2023-01-13T08:33:10.704Z,99934.00
2023-01-13T08:35:42.429Z,99923.88
2023-01-13T08:38:12.543Z,99901.63
2023-01-13T08:40:42.127Z,99905.50
2023-01-13T08:43:11.931Z,99898.94
2023-01-13T08:45:41.691Z,99908.72
2023-01-13T08:48:11.684Z,99918.72
2023-01-13T08:50:41.373Z,99923.03
2023-01-13T08:53:11.235Z,99940.44
2023-01-13T08:55:41.081Z,99950.53
2023-01-13T08:58:15.607Z,99946.94
2023-01-13T09:00:46.125Z,99950.34
2023-01-13T09:03:16.091Z,99955.25
2023-01-13T09:05:46.037Z,99947.44
2023-01-13T09:08:15.825Z,99916.69
2023-01-13T09:10:45.722Z,99866.13
2023-01-13T09:13:15.875Z,99835.50
2023-01-13T09:15:46.649Z,99855.94
2023-01-13T09:18:16.485Z,99839.16
2023-01-13T09:20:44.879Z,99861.91
2023-01-13T09:23:13.396Z,99900.13
2023-01-13T09:25:41.726Z,99907.16
2023-01-13T09:28:10.241Z,99909.09
2023-01-13T09:30:38.613Z,99911.91
2023-01-13T09:33:25.848Z,99931.94
2023-01-13T09:35:59.390Z,99922.66
2023-01-13T09:38:29.463Z,99905.59
2023-01-13T09:40:59.262Z,99904.13
2023-01-13T09:43:56.068Z,99891.44
2023-01-13T09:46:47.519Z,99899.75
2023-01-13T09:49:40.517Z,99917.13
2023-01-13T09:52:26.793Z,99921.03
2023-01-13T09:55:16.908Z,99924.13
2023-01-13T09:57:46.981Z,99935.50
2023-01-13T10:00:33.590Z,99939.88
2023-01-13T10:03:31.870Z,99941.84
2023-01-13T10:06:19.208Z,99945.41
2023-01-13T10:08:51.158Z,99945.72
2023-01-13T10:11:43.895Z,99949.31
2023-01-13T10:14:38.108Z,99937.75
2023-01-13T10:17:26.513Z,99944.91
2023-01-13T10:20:19.002Z,99943.44
2023-01-13T10:23:34.546Z,99938.41
2023-01-13T10:26:49.061Z,99938.75
2023-01-13T10:29:28.403Z,99931.44
2023-01-13T10:32:01.058Z,99934.34
2023-01-13T10:34:31.142Z,99936.63
2023-01-13T10:37:09.371Z,99933.84
2023-01-13T10:39:45.967Z,99936.63
2023-01-13T10:42:22.965Z,99945.56
2023-01-13T10:44:57.007Z,99935.81
2023-01-13T10:47:37.024Z,99934.59
2023-01-13T10:50:13.022Z,99936.88
2023-01-13T10:53:16.249Z,99929.59
2023-01-13T10:56:04.704Z,99929.91
2023-01-13T10:58:34.788Z,99937.41
2023-01-13T11:01:07.404Z,99934.47
2023-01-13T11:03:44.413Z,99923.41
2023-01-13T11:06:28.829Z,99930.34
2023-01-13T11:08:59.469Z,99932.75
2023-01-13T11:11:45.652Z,99940.88
2023-01-13T11:14:48.704Z,99934.78
2023-01-13T11:17:30.078Z,99941.47
2023-01-13T11:20:44.414Z,99941.38
2023-01-13T11:23:35.487Z,99942.97
2023-01-13T11:26:23.999Z,99934.78
2023-01-13T11:29:22.540Z,99931.00
2023-01-13T11:32:16.841Z,99941.47
2023-01-13T11:35:00.713Z,99939.19
2023-01-13T11:37:47.526Z,99933.97
2023-01-13T11:40:42.659Z,99943.94
2023-01-13T11:44:02.707Z,99940.06
2023-01-13T11:46:33.098Z,99955.22
2023-01-13T11:49:05.125Z,99958.13
2023-01-13T11:52:20.102Z,99938.16
2023-01-13T11:55:35.168Z,99944.78
2023-01-13T11:58:51.638Z,99944.75
2023-01-13T12:01:56.870Z,99944.31
2023-01-13T12:04:57.981Z,99947.69
2023-01-13T12:07:58.811Z,99948.63
2023-01-13T12:11:08.903Z,99947.28
2023-01-13T12:14:27.430Z,99950.31
2023-01-13T12:17:03.837Z,99949.22
2023-01-13T12:19:33.910Z,99947.75
2023-01-13T12:22:27.975Z,99932.56
2023-01-13T12:25:24.051Z,99942.84
2023-01-13T12:28:14.381Z,99947.53
2023-01-13T12:31:03.863Z,99954.38
2023-01-13T12:34:46.026Z,99953.50
2023-01-13T12:37:44.867Z,99951.75
2023-01-13T12:40:56.544Z,99965.38
2023-01-13T12:43:43.828Z,99950.75
2023-01-13T12:46:19.636Z,99961.00
2023-01-13T12:48:56.754Z,99964.09
2023-01-13T12:51:52.034Z,99972.72
2023-01-13T12:54:31.041Z,99965.03
2023-01-13T12:57:01.748Z,99975.28
2023-01-13T12:59:34.686Z,99977.41
2023-01-13T13:02:13.412Z,99973.94
2023-01-13T13:05:00.355Z,99975.75
2023-01-13T13:07:30.204Z,99968.56
2023-01-13T13:10:39.001Z,99984.06
2023-01-13T13:13:48.554Z,99970.91
2023-01-13T13:16:27.508Z,99978.03
2023-01-13T13:19:20.046Z,99975.59
2023-01-13T13:22:14.415Z,99979.84
2023-01-13T13:25:04.032Z,99981.44
2023-01-13T13:27:44.222Z,99978.03
2023-01-13T13:30:37.490Z,99981.94
2023-01-13T13:34:09.123Z,99982.63
2023-01-13T13:37:28.937Z,99980.69
2023-01-13T13:40:28.980Z,99978.78
2023-01-13T13:43:18.130Z,99978.28
2023-01-13T13:46:11.250Z,99990.44
2023-01-13T13:48:54.324Z,99995.00
2023-01-13T13:51:41.578Z,99987.88
2023-01-13T13:54:22.633Z,99987.53
2023-01-13T13:56:52.770Z,99991.47
2023-01-13T13:59:30.597Z,99987.19
2023-01-13T14:02:03.971Z,99988.50
2023-01-13T14:04:39.164Z,99998.16
2023-01-13T14:07:21.879Z,99993.94
2023-01-13T14:09:54.922Z,99994.31
2023-01-13T14:12:27.614Z,99994.81
2023-01-13T14:14:57.537Z,99999.97
2023-01-13T14:17:31.231Z,100007.94
2023-01-13T14:20:14.667Z,100008.63
2023-01-13T14:22:57.448Z,100002.09
2023-01-13T14:25:48.854Z,100013.16
2023-01-13T14:28:37.435Z,100015.38
2023-01-13T14:31:09.768Z,100006.63
2023-01-13T14:33:52.642Z,100009.09
2023-01-13T14:36:33.093Z,100013.81
2023-01-13T14:39:05.888Z,100013.97
2023-01-13T14:41:54.375Z,100016.09
2023-01-13T14:44:36.598Z,100013.97
2023-01-13T14:47:28.141Z,100018.22
2023-01-13T14:50:23.515Z,100021.13
2023-01-13T14:52:57.294Z,100024.88
2023-01-13T14:55:40.833Z,100022.13
2023-01-13T14:58:22.632Z,100020.66
2023-01-13T15:01:36.609Z,100022.25
2023-01-13T15:04:32.240Z,100025.34
2023-01-13T15:07:04.417Z,100026.47
2023-01-13T15:09:45.089Z,100019.31
2023-01-13T15:12:37.881Z,100029.75
2023-01-13T15:15:37.968Z,100025.97
2023-01-13T15:18:17.432Z,100043.66
2023-01-13T15:20:47.600Z,100042.34
2023-01-13T15:23:20.696Z,100037.00
2023-01-13T15:25:51.244Z,100036.66
2023-01-13T15:28:27.930Z,100030.31
2023-01-13T15:31:00.747Z,100037.50
2023-01-13T15:33:31.025Z,100035.66
2023-01-13T15:36:01.956Z,100047.03
2023-01-13T15:38:31.964Z,100039.53
2023-01-13T15:41:01.955Z,100040.34
2023-01-13T15:43:50.693Z,100040.16
2023-01-13T15:46:38.485Z,100047.59
2023-01-13T15:49:25.361Z,100053.31
2023-01-13T15:51:55.417Z,100051.84
2023-01-13T15:54:25.476Z,100052.59
2023-01-13T15:56:55.657Z,100053.44
2023-01-13T15:59:28.378Z,100056.59
2023-01-13T16:01:58.352Z,100065.88
2023-01-13T16:04:28.355Z,100068.06
2023-01-13T16:06:59.472Z,100067.25
2023-01-13T16:09:29.501Z,100063.03
2023-01-13T16:11:59.491Z,100064.88
2023-01-13T16:14:29.574Z,100071.41
2023-01-13T16:17:02.522Z,100084.25
2023-01-13T16:19:31.666Z,100083.28
2023-01-13T16:21:59.877Z,100084.72
2023-01-13T16:24:27.903Z,100089.38
2023-01-13T16:26:56.320Z,100095.81
2023-01-13T16:29:24.791Z,100099.88
2023-01-13T16:31:53.206Z,100102.41
2023-01-13T16:34:21.670Z,100100.50
2023-01-13T16:36:50.329Z,100113.03
2023-01-13T16:39:22.870Z,100117.69
2023-01-13T16:41:53.093Z,100114.34
2023-01-13T16:44:21.357Z,100128.38
2023-01-13T16:46:50.006Z,100131.72
2023-01-13T16:49:18.554Z,100115.47
2023-01-13T16:51:46.804Z,100127.19
2023-01-13T16:54:15.364Z,100139.75
2023-01-13T16:56:44.461Z,100120.91
2023-01-13T16:59:15.212Z,100123.50
2023-01-13T17:01:47.673Z,100129.94
2023-01-13T17:04:23.558Z,100142.31
2023-01-13T17:07:02.934Z,100134.34
2023-01-13T17:09:32.946Z,100136.34
2023-01-13T17:12:03.057Z,100147.88
2023-01-13T17:14:33.103Z,100148.94
2023-01-13T17:17:03.180Z,100150.19
2023-01-13T17:19:33.340Z,100151.94
2023-01-13T17:22:03.414Z,100153.47
2023-01-13T17:24:35.173Z,100155.97
2023-01-13T17:27:05.286Z,100164.44
2023-01-13T17:29:35.710Z,100172.97
2023-01-13T17:32:06.481Z,100174.56
2023-01-13T17:34:36.464Z,100166.25
2023-01-13T17:37:06.785Z,100171.75
2023-01-13T17:39:36.860Z,100171.66
2023-01-13T17:42:12.378Z,100180.78
2023-01-13T17:44:43.112Z,100181.53
2023-01-13T17:47:13.112Z,100187.88
2023-01-13T17:49:43.092Z,100197.59
2023-01-13T17:52:13.363Z,100196.09
2023-01-13T17:54:43.907Z,100192.75
2023-01-13T17:57:13.908Z,100186.81
2023-01-13T17:59:44.012Z,100194.63
2023-01-13T18:02:12.901Z,100197.09
2023-01-13T18:04:42.073Z,100197.28
2023-01-13T18:07:09.446Z,100193.09
2023-01-13T18:09:38.192Z,100192.59
2023-01-13T18:12:11.720Z,100202.31
2023-01-13T18:14:42.287Z,100209.03
2023-01-13T18:17:12.529Z,100208.44
2023-01-13T18:20:01.345Z,100217.16
2023-01-13T18:22:50.196Z,100218.91
2023-01-13T18:25:39.056Z,100214.72
2023-01-13T18:28:09.066Z,100222.78
2023-01-13T18:30:39.114Z,100218.38
2023-01-13T18:33:09.172Z,100228.75
2023-01-13T18:35:40.661Z,100221.28
2023-01-13T18:38:28.763Z,100218.59
2023-01-13T18:40:58.782Z,100227.38
2023-01-13T18:43:33.460Z,100226.28
2023-01-13T18:46:03.588Z,100235.34
2023-01-13T18:48:33.685Z,100233.53
2023-01-13T18:51:03.903Z,100235.78
2023-01-13T18:53:34.179Z,100243.03
2023-01-13T18:56:14.217Z,100240.56
2023-01-13T18:58:51.910Z,100239.66
2023-01-13T19:01:29.624Z,100233.31
2023-01-13T19:04:10.309Z,100242.53
2023-01-13T19:06:47.789Z,100254.06
2023-01-13T19:09:28.665Z,100253.19
2023-01-13T19:12:01.194Z,100264.09
2023-01-13T19:14:42.275Z,100271.78
2023-01-13T19:17:17.153Z,100264.38
2023-01-13T19:19:56.076Z,100273.28
2023-01-13T19:22:30.968Z,100270.84
2023-01-13T19:25:01.763Z,100281.66
2023-01-13T19:27:31.881Z,100277.00
2023-01-13T19:30:03.516Z,100275.34
2023-01-13T19:32:33.676Z,100281.81
2023-01-13T19:35:02.135Z,100287.31
2023-01-13T19:37:33.799Z,100296.31
2023-01-13T19:40:09.298Z,100296.72
2023-01-13T19:42:57.234Z,100296.53
2023-01-13T19:45:26.999Z,100304.47
2023-01-13T19:48:01.938Z,100310.34
2023-01-13T19:50:37.474Z,100304.59
2023-01-13T19:53:07.292Z,100312.16
2023-01-13T19:55:36.631Z,100314.63
2023-01-13T19:58:04.333Z,100315.69
2023-01-13T20:00:34.927Z,100315.25
2023-01-13T20:03:04.748Z,100314.75
2023-01-13T20:05:33.915Z,100335.69
2023-01-13T20:08:02.298Z,100331.09
2023-01-13T20:10:30.801Z,100330.19
2023-01-13T20:12:59.901Z,100334.97
2023-01-13T20:15:31.492Z,100340.03
2023-01-13T20:18:00.823Z,100338.91
2023-01-13T20:20:31.112Z,100331.59
2023-01-13T20:23:01.104Z,100345.25
2023-01-13T20:25:31.166Z,100350.06
2023-01-13T20:28:02.332Z,100344.03
2023-01-13T20:30:31.878Z,100347.94
2023-01-13T20:33:01.566Z,100356.00
2023-01-13T20:35:30.071Z,100355.78
2023-01-13T20:37:58.445Z,100353.34
2023-01-13T20:40:26.904Z,100354.75
2023-01-13T20:42:55.309Z,100366.22
2023-01-13T20:45:23.932Z,100361.72
2023-01-13T20:47:53.873Z,100362.66
2023-01-13T20:50:23.678Z,100367.53
2023-01-13T20:52:52.660Z,100364.19
2023-01-13T20:55:20.407Z,100364.78
2023-01-13T20:57:50.118Z,100369.47
2023-01-13T21:00:18.340Z,100362.56
2023-01-13T21:02:45.766Z,100368.34
2023-01-13T21:05:14.337Z,100370.28
2023-01-13T21:07:42.521Z,100370.00
2023-01-13T21:10:11.566Z,100362.25
2023-01-13T21:12:57.864Z,100362.25
2023-01-13T21:15:27.882Z,100375.38
2023-01-13T21:18:16.224Z,100379.91
2023-01-13T21:20:46.268Z,100390.81
2023-01-13T21:23:16.135Z,100390.19
2023-01-13T21:25:45.980Z,100387.72
2023-01-13T21:28:18.200Z,100386.19
2023-01-13T21:30:50.049Z,100404.66
2023-01-13T21:33:18.091Z,100395.38
2023-01-13T21:35:48.091Z,100397.59
2023-01-13T21:38:17.783Z,100407.53
2023-01-13T21:41:07.665Z,100411.19
2023-01-13T21:43:56.795Z,100402.00
2023-01-13T21:46:44.094Z,100412.22
2023-01-13T21:49:11.462Z,100405.75
2023-01-13T21:51:38.942Z,100400.13
2023-01-13T21:54:08.628Z,100408.28
2023-01-13T21:56:38.465Z,100407.59
2023-01-13T21:59:08.265Z,100406.44
2023-01-13T22:02:11.204Z,100415.03
2023-01-13T22:04:27.399Z,100407.19
2023-01-13T22:06:55.824Z,100408.22
2023-01-13T22:09:24.385Z,100409.13
2023-01-13T22:11:54.083Z,100413.88
2023-01-13T22:14:24.925Z,100423.31
2023-01-13T22:16:56.880Z,100425.03
2023-01-13T22:19:26.879Z,100421.81
2023-01-13T22:21:57.762Z,100423.44
2023-01-13T22:24:30.191Z,100425.91
2023-01-13T22:27:00.211Z,100426.28
2023-01-13T22:29:29.902Z,100433.66
2023-01-13T22:31:59.920Z,100437.38
2023-01-13T22:34:30.095Z,100448.97
2023-01-13T22:37:01.726Z,100442.59
2023-01-13T22:39:30.900Z,100445.25
2023-01-13T22:42:01.081Z,100443.41
2023-01-13T22:44:30.943Z,100441.31
2023-01-13T22:47:01.240Z,100443.94
2023-01-13T22:49:30.748Z,100460.19
2023-01-13T22:52:00.653Z,100455.56
2023-01-13T22:54:30.562Z,100460.25
2023-01-13T22:57:00.267Z,100464.94
2023-01-13T22:59:31.889Z,100471.03
2023-01-13T23:02:01.969Z,100475.81
2023-01-13T23:04:32.215Z,100485.78
2023-01-13T23:07:02.373Z,100467.72
2023-01-13T23:09:32.490Z,100489.13
2023-01-13T23:12:02.528Z,100489.66
2023-01-13T23:14:32.665Z,100490.53
2023-01-13T23:17:02.850Z,100480.56
2023-01-13T23:19:33.080Z,100483.69
2023-01-13T23:22:03.170Z,100485.97
2023-01-13T23:24:33.302Z,100483.22
2023-01-13T23:27:03.568Z,100477.59
2023-01-13T23:29:33.659Z,100473.88
2023-01-13T23:32:04.204Z,100484.13
2023-01-13T23:34:34.305Z,100484.75
2023-01-13T23:37:04.385Z,100486.69
2023-01-13T23:39:34.440Z,100500.28
2023-01-13T23:42:05.127Z,100496.19
2023-01-13T23:44:35.556Z,100504.22
2023-01-13T23:47:05.668Z,100509.00
2023-01-13T23:49:35.711Z,100511.06
2023-01-13T23:52:04.688Z,100520.56
2023-01-13T23:54:32.682Z,100526.19
2023-01-13T23:57:01.077Z,100527.38
2023-01-13T23:59:30.714Z,100528.72
